Time;durP1;ratioP1;P1;durP2;ratioP2;P2;SDS_P1;SDS_P2;PMS_P1;PMS_P2;Temp;Humidity;BMP_temperature;BMP_pressure;BME280_temperature;BME280_humidity;BME280_pressure;Samples;Min_cycle;Max_cycle;Signal;HPM_P1;HPM_P2
2021/12/09 00:01:01;;;;;;;4.53;1.60;;;3.00;99.90;;;;;;4939300;29;20036;-88
2021/12/09 00:03:28;;;;;;;3.67;1.50;;;2.90;99.90;;;;;;4957731;28;20027;-89
2021/12/09 00:05:56;;;;;;;2.83;1.00;;;2.90;99.90;;;;;;4975981;28;20023;-88
2021/12/09 00:08:24;;;;;;;4.17;1.00;;;2.80;99.90;;;;;;4958928;28;20023;-89
2021/12/09 00:10:50;;;;;;;7.10;1.30;;;2.80;99.90;;;;;;4955165;29;20039;-88
2021/12/09 00:13:16;;;;;;;2.40;0.80;;;2.70;99.90;;;;;;4968798;28;20030;-89
2021/12/09 00:15:41;;;;;;;1.57;0.60;;;2.80;99.90;;;;;;4975702;28;20045;-88
2021/12/09 00:18:07;;;;;;;2.17;0.70;;;2.80;99.90;;;;;;4974062;28;20039;-88
2021/12/09 00:20:33;;;;;;;3.83;0.87;;;2.80;99.90;;;;;;4938534;29;20019;-88
2021/12/09 00:22:58;;;;;;;3.87;0.70;;;2.80;99.90;;;;;;4961916;28;20039;-87
2021/12/09 00:25:24;;;;;;;2.13;0.73;;;2.80;99.90;;;;;;4957368;28;20027;-89
2021/12/09 00:27:51;;;;;;;2.50;0.87;;;2.70;99.90;;;;;;4965102;28;20027;-88
2021/12/09 00:30:17;;;;;;;1.70;0.60;;;2.80;99.90;;;;;;4959392;28;20066;-88
2021/12/09 00:32:43;;;;;;;1.33;0.37;;;2.70;99.90;;;;;;4955107;28;20055;-88
2021/12/09 00:35:13;;;;;;;2.00;0.70;;;2.70;99.90;;;;;;4938773;29;20031;-88
2021/12/09 00:37:50;;;;;;;3.63;0.77;;;2.60;99.90;;;;;;4938734;29;20031;-88
2021/12/09 00:40:16;;;;;;;6.93;0.70;;;2.60;99.90;;;;;;4957440;29;20464;-87
2021/12/09 00:42:42;;;;;;;1.83;0.50;;;2.70;99.90;;;;;;4948008;29;20035;-88
2021/12/09 00:45:08;;;;;;;2.20;0.40;;;2.50;99.90;;;;;;4985964;28;20015;-87
2021/12/09 00:47:33;;;;;;;2.13;0.70;;;2.50;99.90;;;;;;4968321;28;20027;-89
2021/12/09 00:49:59;;;;;;;3.07;0.93;;;2.50;99.90;;;;;;4960769;28;20031;-87
2021/12/09 00:52:25;;;;;;;4.37;0.70;;;2.40;99.90;;;;;;4942707;28;20035;-87
2021/12/09 00:54:52;;;;;;;3.17;0.60;;;2.40;99.90;;;;;;4966754;28;20037;-87
2021/12/09 00:57:20;;;;;;;1.97;0.40;;;2.30;99.90;;;;;;4961208;28;20042;-88
2021/12/09 00:59:46;;;;;;;3.47;0.63;;;2.20;99.90;;;;;;4958340;29;20113;-88
2021/12/09 01:02:12;;;;;;;1.43;0.40;;;2.20;99.90;;;;;;4941241;29;20028;-87
2021/12/09 01:04:39;;;;;;;1.37;0.30;;;2.20;99.90;;;;;;4941206;29;20033;-88
2021/12/09 01:07:07;;;;;;;1.23;0.50;;;2.20;99.90;;;;;;4957485;28;20027;-88
2021/12/09 01:09:34;;;;;;;2.23;0.70;;;2.30;99.90;;;;;;4955794;29;20074;-88
2021/12/09 01:12:00;;;;;;;2.27;0.60;;;2.30;99.90;;;;;;4941742;28;20033;-88
2021/12/09 01:14:26;;;;;;;3.10;1.00;;;2.30;99.90;;;;;;4976272;28;20030;-88
2021/12/09 01:16:52;;;;;;;1.33;0.70;;;2.40;99.90;;;;;;4964079;28;20035;-88
2021/12/09 01:19:18;;;;;;;1.90;0.70;;;2.40;99.90;;;;;;4940155;29;20035;-89
2021/12/09 01:21:44;;;;;;;4.60;0.80;;;2.40;99.90;;;;;;4954648;28;20036;-88
2021/12/09 01:24:09;;;;;;;5.10;0.77;;;2.50;99.90;;;;;;4958339;28;20035;-88
2021/12/09 01:26:36;;;;;;;1.77;0.53;;;2.40;99.90;;;;;;4975232;28;20042;-88
2021/12/09 01:29:09;;;;;;;3.33;0.67;;;2.50;99.90;;;;;;4958455;28;20668;-87
2021/12/09 01:31:37;;;;;;;1.97;0.77;;;2.50;99.90;;;;;;4977169;28;20030;-87
2021/12/09 01:34:04;;;;;;;4.20;0.67;;;2.50;99.90;;;;;;4978251;28;20053;-88
2021/12/09 01:36:32;;;;;;;3.30;1.07;;;2.50;99.90;;;;;;4958798;28;20063;-87
2021/12/09 01:38:59;;;;;;;3.57;1.10;;;2.50;99.90;;;;;;4939481;29;20103;-89
2021/12/09 01:41:25;;;;;;;3.50;1.13;;;2.50;99.90;;;;;;4938366;29;20054;-88
2021/12/09 01:43:51;;;;;;;2.87;0.90;;;2.60;99.90;;;;;;4956219;28;20066;-88
2021/12/09 01:46:22;;;;;;;2.77;0.80;;;2.60;99.90;;;;;;4955169;28;20071;-88
2021/12/09 01:48:50;;;;;;;3.03;1.07;;;2.60;99.90;;;;;;4958472;28;20105;-88
2021/12/09 01:51:16;;;;;;;4.20;0.90;;;2.60;99.90;;;;;;4957670;28;20074;-87
2021/12/09 01:53:43;;;;;;;3.03;0.90;;;2.60;99.90;;;;;;4958281;28;20454;-88
2021/12/09 01:56:12;;;;;;;3.23;1.00;;;2.70;99.90;;;;;;4939831;29;20057;-87
2021/12/09 01:58:38;;;;;;;4.57;0.90;;;2.60;99.90;;;;;;4954139;29;20110;-88
2021/12/09 02:01:06;;;;;;;3.03;1.00;;;2.60;99.90;;;;;;4938318;28;20058;-87
2021/12/09 02:03:32;;;;;;;1.57;0.70;;;2.60;99.90;;;;;;4953979;28;20070;-88
2021/12/09 02:05:58;;;;;;;2.60;1.20;;;2.60;99.90;;;;;;4954115;29;20448;-88
2021/12/09 02:08:24;;;;;;;2.60;1.00;;;2.60;99.90;;;;;;4957200;28;20034;-88
2021/12/09 02:10:51;;;;;;;2.20;0.90;;;2.60;99.90;;;;;;4957263;28;20027;-88
2021/12/09 02:13:18;;;;;;;2.73;0.87;;;2.50;99.90;;;;;;4968130;28;20632;-88
2021/12/09 02:15:44;;;;;;;3.40;0.93;;;2.50;99.90;;;;;;4938227;29;20476;-88
2021/12/09 02:18:12;;;;;;;2.53;1.00;;;2.40;99.90;;;;;;4957633;28;20386;-88
2021/12/09 02:20:40;;;;;;;2.20;0.90;;;2.40;99.90;;;;;;4941465;29;20059;-88
2021/12/09 02:23:11;;;;;;;3.33;0.83;;;2.50;99.90;;;;;;4944008;28;20085;-88
2021/12/09 02:25:40;;;;;;;3.67;1.67;;;2.50;99.90;;;;;;4961044;28;20097;-88
2021/12/09 02:28:06;;;;;;;3.53;1.17;;;2.50;99.90;;;;;;4977236;28;20561;-88
2021/12/09 02:30:31;;;;;;;2.60;1.23;;;2.50;99.90;;;;;;4970778;28;20115;-88
2021/12/09 02:32:57;;;;;;;4.13;1.47;;;2.30;99.90;;;;;;4959204;28;20371;-88
2021/12/09 02:35:22;;;;;;;3.13;1.40;;;2.30;99.90;;;;;;4960525;28;20094;-88
2021/12/09 02:37:49;;;;;;;4.83;1.70;;;2.30;99.90;;;;;;4945031;29;20941;-87
2021/12/09 02:40:16;;;;;;;4.67;1.57;;;2.30;99.90;;;;;;4939455;29;20027;-88
2021/12/09 02:42:42;;;;;;;6.97;1.70;;;2.30;99.90;;;;;;4938747;29;20408;-89
2021/12/09 02:45:10;;;;;;;6.47;1.77;;;2.30;99.90;;;;;;4946061;29;20028;-87
2021/12/09 02:47:37;;;;;;;7.93;1.93;;;2.30;99.90;;;;;;4958128;29;20055;-88
2021/12/09 02:50:04;;;;;;;6.23;2.10;;;2.40;99.90;;;;;;4949337;28;20019;-88
2021/12/09 02:52:30;;;;;;;5.80;2.13;;;2.40;99.90;;;;;;4980879;28;20047;-88
2021/12/09 02:54:57;;;;;;;4.23;1.70;;;2.40;99.90;;;;;;4958462;29;20520;-88
2021/12/09 02:57:23;;;;;;;4.30;2.10;;;2.40;99.90;;;;;;4960587;29;20051;-87
2021/12/09 02:59:48;;;;;;;3.87;1.87;;;2.50;99.90;;;;;;4955887;29;20061;-87
2021/12/09 03:02:14;;;;;;;3.93;1.90;;;2.40;99.90;;;;;;4938383;29;20559;-87
2021/12/09 03:04:44;;;;;;;6.87;2.10;;;2.40;99.90;;;;;;4939407;29;20023;-87
2021/12/09 03:07:30;;;;;;;3.03;1.53;;;2.50;99.90;;;;;;4956549;29;20034;-87
2021/12/09 03:10:02;;;;;;;4.40;1.50;;;2.50;99.90;;;;;;4939238;29;20126;-88
2021/12/09 03:12:31;;;;;;;3.72;1.30;;;2.50;99.90;;;;;;4972979;28;20114;-87
2021/12/09 03:14:57;;;;;;;2.80;1.77;;;2.60;99.90;;;;;;4958092;28;20554;-88
2021/12/09 03:17:23;;;;;;;10.13;1.63;;;2.60;99.90;;;;;;4958997;28;20041;-88
2021/12/09 03:19:50;;;;;;;4.07;1.60;;;2.60;99.90;;;;;;4960217;28;20042;-88
2021/12/09 03:22:17;;;;;;;6.80;1.57;;;2.70;99.90;;;;;;4956662;28;20031;-87
2021/12/09 03:24:42;;;;;;;5.50;1.37;;;2.70;99.90;;;;;;4955163;28;20054;-87
2021/12/09 03:27:08;;;;;;;4.77;1.40;;;2.70;99.90;;;;;;4957264;28;20022;-88
2021/12/09 03:29:34;;;;;;;3.80;1.10;;;2.70;99.90;;;;;;4948594;28;20015;-88
2021/12/09 03:32:05;;;;;;;4.77;1.30;;;2.70;99.90;;;;;;4958293;28;20634;-87
2021/12/09 03:34:33;;;;;;;5.00;1.67;;;2.70;99.90;;;;;;4975903;28;20050;-87
2021/12/09 03:37:04;;;;;;;5.53;1.60;;;2.70;99.90;;;;;;4965638;28;20106;-88
2021/12/09 03:39:33;;;;;;;6.97;1.60;;;2.70;99.90;;;;;;4955938;29;20058;-87
2021/12/09 03:41:59;;;;;;;3.93;1.50;;;2.70;99.90;;;;;;4938851;29;20555;-87
2021/12/09 03:44:27;;;;;;;5.70;1.87;;;2.70;99.90;;;;;;4955479;29;20369;-87
2021/12/09 03:46:55;;;;;;;7.20;2.10;;;2.70;99.90;;;;;;4938924;29;20035;-88
2021/12/09 03:49:23;;;;;;;3.80;1.37;;;2.70;99.90;;;;;;4955322;29;20033;-87
2021/12/09 03:51:49;;;;;;;4.57;1.17;;;2.80;99.90;;;;;;4954371;28;20062;-87
2021/12/09 03:54:15;;;;;;;3.17;1.40;;;2.70;99.90;;;;;;4970146;28;20102;-88
2021/12/09 03:56:41;;;;;;;6.10;1.97;;;2.70;99.90;;;;;;4954667;29;20015;-88
2021/12/09 03:59:08;;;;;;;4.37;1.60;;;2.70;99.90;;;;;;4955759;29;20023;-87
2021/12/09 04:01:36;;;;;;;4.63;1.67;;;2.70;99.90;;;;;;4976971;23;20050;-85
2021/12/09 04:04:03;;;;;;;5.73;1.67;;;2.70;99.90;;;;;;4992823;28;20061;-85
2021/12/09 04:06:29;;;;;;;3.43;1.53;;;2.70;99.90;;;;;;4974889;28;20022;-86
2021/12/09 04:08:56;;;;;;;6.03;1.40;;;2.70;99.90;;;;;;4992465;28;20022;-85
2021/12/09 04:11:22;;;;;;;6.27;1.70;;;2.70;99.90;;;;;;4958685;28;20188;-86
2021/12/09 04:13:48;;;;;;;7.63;1.90;;;2.70;99.90;;;;;;4970204;28;20023;-85
2021/12/09 04:16:14;;;;;;;7.57;1.70;;;2.70;99.90;;;;;;4973026;28;20052;-85
2021/12/09 04:18:42;;;;;;;4.87;1.70;;;2.70;99.90;;;;;;4961496;28;20113;-85
2021/12/09 04:21:09;;;;;;;6.40;1.53;;;2.70;99.90;;;;;;4953426;28;20031;-85
2021/12/09 04:23:35;;;;;;;3.13;1.23;;;2.70;99.90;;;;;;4942668;28;20030;-85
2021/12/09 04:26:01;;;;;;;10.67;1.40;;;2.70;99.90;;;;;;4973170;28;20031;-85
2021/12/09 04:28:27;;;;;;;13.10;1.67;;;2.70;99.90;;;;;;4946650;29;20027;-85
2021/12/09 04:30:53;;;;;;;5.00;1.70;;;2.70;99.90;;;;;;4953570;29;20037;-83
2021/12/09 04:33:18;;;;;;;5.23;1.50;;;2.70;99.90;;;;;;4953132;29;20759;-85
2021/12/09 04:35:44;;;;;;;4.63;1.33;;;2.70;99.90;;;;;;4976931;28;20029;-85
2021/12/09 04:38:10;;;;;;;4.03;1.50;;;2.70;99.90;;;;;;4962321;28;20031;-86
2021/12/09 04:40:35;;;;;;;5.63;1.40;;;2.60;99.90;;;;;;4935441;29;20027;-85
2021/12/09 04:43:01;;;;;;;3.77;1.30;;;2.60;99.90;;;;;;4953139;29;20031;-86
2021/12/09 04:45:28;;;;;;;3.50;0.90;;;2.60;99.90;;;;;;4953339;28;20024;-85
2021/12/09 04:47:54;;;;;;;9.63;1.67;;;2.60;99.90;;;;;;4953596;28;20031;-85
2021/12/09 04:50:20;;;;;;;5.10;1.20;;;2.60;99.90;;;;;;4953281;29;20607;-85
2021/12/09 04:52:45;;;;;;;7.00;1.53;;;2.60;99.90;;;;;;4951612;29;20131;-86
2021/12/09 04:55:11;;;;;;;7.63;1.83;;;2.60;99.90;;;;;;4936159;28;20538;-85
2021/12/09 04:57:38;;;;;;;6.77;1.67;;;2.60;99.90;;;;;;4951006;28;20028;-83
2021/12/09 05:00:08;;;;;;;5.03;1.20;;;2.60;99.90;;;;;;4935868;29;20031;-83
2021/12/09 05:03:19;;;;;;;4.50;1.23;;;2.60;99.90;;;;;;4934836;29;20039;-83
2021/12/09 05:05:20;;;;;;;6.87;1.33;;;2.60;99.90;;;;;;4949088;28;20527;-83
2021/12/09 05:07:47;;;;;;;4.43;1.50;;;2.60;99.90;;;;;;4971634;28;20058;-85
2021/12/09 05:10:12;;;;;;;2.83;1.10;;;2.60;99.90;;;;;;4966890;28;20026;-85
2021/12/09 05:12:38;;;;;;;4.57;1.50;;;2.60;99.90;;;;;;4944961;28;20417;-85
2021/12/09 05:15:04;;;;;;;3.23;1.20;;;2.70;99.90;;;;;;4943718;29;20038;-85
2021/12/09 05:17:30;;;;;;;3.67;1.13;;;2.60;99.90;;;;;;4950696;28;20448;-85
2021/12/09 05:19:55;;;;;;;4.50;1.30;;;2.60;99.90;;;;;;4951892;28;20031;-85
2021/12/09 05:22:21;;;;;;;4.53;1.33;;;2.60;99.90;;;;;;4971676;28;20086;-86
2021/12/09 05:24:49;;;;;;;6.40;1.50;;;2.60;99.90;;;;;;4953969;28;20034;-86
2021/12/09 05:27:16;;;;;;;6.00;1.50;;;2.70;99.90;;;;;;4972344;28;20015;-85
2021/12/09 05:29:43;;;;;;;6.67;1.70;;;2.70;99.90;;;;;;4951474;28;20553;-86
2021/12/09 05:32:12;;;;;;;7.17;1.40;;;2.70;99.90;;;;;;4948766;28;20046;-86
2021/12/09 05:34:44;;;;;;;4.33;1.63;;;2.70;99.90;;;;;;4956897;28;20030;-85
2021/12/09 05:37:13;;;;;;;5.25;1.17;;;2.70;99.90;;;;;;4938194;28;20019;-85
2021/12/09 05:39:41;;;;;;;10.77;1.40;;;2.70;99.90;;;;;;4953735;28;20035;-86
2021/12/09 05:42:09;;;;;;;7.40;1.60;;;2.70;99.90;;;;;;4959469;28;20130;-85
2021/12/09 05:44:35;;;;;;;11.30;1.23;;;2.70;99.90;;;;;;4944371;28;20377;-84
2021/12/09 05:47:02;;;;;;;7.60;1.70;;;2.70;99.90;;;;;;4941590;28;20030;-83
2021/12/09 05:49:29;;;;;;;3.33;1.10;;;2.70;99.90;;;;;;4949270;28;20054;-84
2021/12/09 05:51:55;;;;;;;6.40;1.47;;;2.70;99.90;;;;;;4961626;28;20062;-83
2021/12/09 05:54:21;;;;;;;3.17;0.87;;;2.70;99.90;;;;;;4970737;28;20018;-83
2021/12/09 05:56:47;;;;;;;3.20;1.23;;;2.70;99.90;;;;;;4965807;28;20027;-84
2021/12/09 05:59:12;;;;;;;5.43;1.20;;;2.70;99.90;;;;;;4947876;28;20054;-85
2021/12/09 06:01:39;;;;;;;4.87;1.70;;;2.70;99.90;;;;;;4944535;28;20395;-84
2021/12/09 06:04:05;;;;;;;3.83;1.10;;;2.70;99.90;;;;;;4945068;28;20095;-84
2021/12/09 06:06:32;;;;;;;4.43;1.23;;;2.60;99.90;;;;;;4969923;28;20024;-85
2021/12/09 06:08:58;;;;;;;7.20;1.30;;;2.60;99.90;;;;;;4967579;28;20031;-85
2021/12/09 06:11:24;;;;;;;5.83;1.57;;;2.60;99.90;;;;;;4964033;28;20032;-85
2021/12/09 06:13:50;;;;;;;5.90;1.27;;;2.60;99.90;;;;;;4953704;28;20042;-84
2021/12/09 06:16:16;;;;;;;2.57;0.80;;;2.60;99.90;;;;;;4974418;28;20023;-84
2021/12/09 06:18:42;;;;;;;3.70;0.90;;;2.60;99.90;;;;;;4955242;28;20019;-84
2021/12/09 06:21:08;;;;;;;4.67;1.13;;;2.60;99.90;;;;;;4950722;28;20023;-84
2021/12/09 06:23:34;;;;;;;4.27;1.63;;;2.60;99.90;;;;;;4971209;28;20042;-84
2021/12/09 06:26:00;;;;;;;5.37;1.13;;;2.60;99.90;;;;;;4953161;28;20051;-84
2021/12/09 06:28:25;;;;;;;2.20;0.90;;;2.60;99.90;;;;;;4970375;28;20059;-83
2021/12/09 06:30:51;;;;;;;4.87;1.00;;;2.60;99.90;;;;;;4974864;28;20031;-84
2021/12/09 06:33:16;;;;;;;2.43;0.90;;;2.50;99.90;;;;;;4966014;28;20209;-83
2021/12/09 06:35:42;;;;;;;3.17;1.00;;;2.50;99.90;;;;;;4945922;28;20053;-83
2021/12/09 06:38:12;;;;;;;5.70;0.97;;;2.50;99.90;;;;;;4961499;28;20035;-84
2021/12/09 06:40:38;;;;;;;6.17;1.20;;;2.50;99.90;;;;;;4975089;28;20042;-84
2021/12/09 06:43:04;;;;;;;5.83;1.20;;;2.50;99.90;;;;;;4969983;28;20050;-84
2021/12/09 06:45:30;;;;;;;4.03;0.90;;;2.50;99.90;;;;;;4968520;28;20476;-83
2021/12/09 06:47:56;;;;;;;8.23;1.40;;;2.50;99.90;;;;;;4969617;28;20433;-84
2021/12/09 06:50:23;;;;;;;5.57;0.90;;;2.50;99.90;;;;;;4960039;28;20039;-84
2021/12/09 06:52:49;;;;;;;3.17;0.90;;;2.40;99.90;;;;;;4959584;28;20086;-84
2021/12/09 06:55:16;;;;;;;5.10;1.20;;;2.40;99.90;;;;;;4955951;28;20037;-85
2021/12/09 06:57:43;;;;;;;2.20;0.93;;;2.50;99.90;;;;;;4956068;28;20122;-85
2021/12/09 07:00:15;;;;;;;2.70;0.70;;;2.40;99.90;;;;;;4954616;28;20138;-85
2021/12/09 07:02:43;;;;;;;4.60;0.90;;;2.40;99.90;;;;;;4958021;28;20039;-85
2021/12/09 07:05:10;;;;;;;3.43;1.03;;;2.40;99.90;;;;;;4963523;28;20068;-85
2021/12/09 07:07:36;;;;;;;4.40;1.13;;;2.40;99.90;;;;;;4956217;28;20093;-85
2021/12/09 07:10:02;;;;;;;3.90;0.97;;;2.40;99.90;;;;;;4967002;28;20088;-84
2021/12/09 07:12:28;;;;;;;2.47;0.80;;;2.40;99.90;;;;;;4956834;28;20030;-85
2021/12/09 07:14:54;;;;;;;5.77;1.20;;;2.40;99.90;;;;;;4972545;28;20022;-85
2021/12/09 07:17:20;;;;;;;4.73;1.53;;;2.40;99.90;;;;;;4972319;28;20090;-84
2021/12/09 07:19:46;;;;;;;2.10;1.00;;;2.40;99.90;;;;;;4956023;28;20031;-85
2021/12/09 07:22:12;;;;;;;5.43;1.07;;;2.40;99.90;;;;;;4963020;28;20130;-85
2021/12/09 07:24:37;;;;;;;5.33;1.00;;;2.40;99.90;;;;;;4963703;28;20018;-85
2021/12/09 07:27:03;;;;;;;3.87;1.30;;;2.40;99.90;;;;;;4962767;28;20023;-85
2021/12/09 07:29:29;;;;;;;4.90;1.23;;;2.50;99.90;;;;;;4951336;28;20045;-85
2021/12/09 07:31:55;;;;;;;3.67;1.20;;;2.40;99.90;;;;;;4957316;28;20031;-85
2021/12/09 07:34:21;;;;;;;3.47;1.13;;;2.50;99.90;;;;;;4959900;28;20027;-85
2021/12/09 07:36:47;;;;;;;4.53;0.93;;;2.50;99.90;;;;;;4957980;28;20058;-85
2021/12/09 07:39:13;;;;;;;3.30;1.10;;;2.50;99.90;;;;;;4956558;28;21383;-85
2021/12/09 07:41:39;;;;;;;5.90;1.37;;;2.50;99.90;;;;;;4958365;28;20027;-85
2021/12/09 07:44:05;;;;;;;4.87;1.40;;;2.50;99.90;;;;;;4959451;28;20035;-85
2021/12/09 07:46:33;;;;;;;4.60;1.30;;;2.50;99.90;;;;;;4960333;28;20102;-85
2021/12/09 07:48:58;;;;;;;3.97;1.20;;;2.50;99.90;;;;;;4935791;29;20496;-85
2021/12/09 07:51:25;;;;;;;7.10;1.30;;;2.50;99.90;;;;;;4942879;28;20062;-85
2021/12/09 07:53:51;;;;;;;6.00;1.37;;;2.50;99.90;;;;;;4950510;28;20065;-83
2021/12/09 07:56:17;;;;;;;2.77;1.03;;;2.50;99.90;;;;;;4944663;28;20110;-84
2021/12/09 07:58:43;;;;;;;4.47;1.20;;;2.60;99.90;;;;;;4950131;28;20610;-84
2021/12/09 08:01:08;;;;;;;4.93;1.40;;;2.60;99.90;;;;;;4963846;28;20042;-84
2021/12/09 08:03:34;;;;;;;3.33;1.03;;;2.60;99.90;;;;;;4959989;28;20026;-84
2021/12/09 08:06:00;;;;;;;2.60;1.07;;;2.60;99.90;;;;;;4960315;28;20476;-84
2021/12/09 08:08:26;;;;;;;3.13;1.30;;;2.60;99.90;;;;;;4961920;28;20031;-84
2021/12/09 08:10:51;;;;;;;7.87;1.23;;;2.60;99.90;;;;;;4951711;28;20486;-84
2021/12/09 08:13:17;;;;;;;3.97;1.17;;;2.60;99.90;;;;;;4941035;28;20081;-84
2021/12/09 08:15:48;;;;;;;5.13;1.37;;;2.60;99.90;;;;;;4960722;28;20194;-84
2021/12/09 08:20:52;;;;;;;3.58;1.02;;;2.60;99.90;;;;;;4966345;28;20030;-85
2021/12/09 08:23:19;;;;;;;5.25;1.45;;;2.60;99.90;;;;;;4940336;28;20058;-84
2021/12/09 08:25:47;;;;;;;3.23;1.03;;;2.60;99.90;;;;;;4954559;28;20033;-84
2021/12/09 08:28:12;;;;;;;3.17;1.10;;;2.60;99.90;;;;;;4936950;29;20023;-85
2021/12/09 08:30:39;;;;;;;5.57;1.67;;;2.60;99.90;;;;;;4954354;28;20086;-85
2021/12/09 08:33:08;;;;;;;4.37;1.40;;;2.70;99.90;;;;;;4939563;29;20023;-84
2021/12/09 08:35:36;;;;;;;5.30;1.57;;;2.70;99.90;;;;;;4939991;28;20031;-84
2021/12/09 08:38:04;;;;;;;5.83;1.77;;;2.70;99.90;;;;;;4962849;28;20120;-84
2021/12/09 08:40:29;;;;;;;4.63;1.03;;;2.70;99.90;;;;;;4940443;28;20039;-83
2021/12/09 08:42:56;;;;;;;4.60;1.40;;;2.70;99.90;;;;;;4943513;28;20651;-85
2021/12/09 08:45:21;;;;;;;6.67;1.40;;;2.70;99.90;;;;;;4950705;28;20023;-86
2021/12/09 08:47:48;;;;;;;4.27;1.10;;;2.70;99.90;;;;;;4936599;28;20078;-86
2021/12/09 08:50:19;;;;;;;5.70;1.10;;;2.80;99.90;;;;;;4953561;28;20028;-86
2021/12/09 08:52:46;;;;;;;5.07;1.73;;;2.80;99.90;;;;;;4936800;29;20057;-85
2021/12/09 08:55:11;;;;;;;3.17;1.50;;;2.90;99.90;;;;;;4953398;28;20035;-86
2021/12/09 08:57:37;;;;;;;3.93;1.40;;;2.90;99.90;;;;;;4953386;29;20033;-86
2021/12/09 09:00:12;;;;;;;4.43;1.33;;;2.90;99.90;;;;;;4954031;28;20069;-85
2021/12/09 09:02:41;;;;;;;6.50;1.60;;;2.90;99.90;;;;;;4961977;28;20069;-84
2021/12/09 09:05:10;;;;;;;2.93;1.27;;;3.00;99.90;;;;;;4947785;28;20031;-84
2021/12/09 09:07:38;;;;;;;5.87;1.63;;;3.00;99.90;;;;;;4945374;28;20027;-84
2021/12/09 09:10:04;;;;;;;6.90;1.30;;;3.00;99.90;;;;;;4942267;28;20456;-84
2021/12/09 09:12:30;;;;;;;5.40;1.97;;;3.00;99.90;;;;;;4947323;28;20037;-84
2021/12/09 09:14:56;;;;;;;6.47;1.17;;;3.10;99.90;;;;;;4945624;28;20023;-84
2021/12/09 09:17:21;;;;;;;5.43;1.37;;;3.10;99.90;;;;;;4945096;28;20077;-84
2021/12/09 09:19:47;;;;;;;5.87;1.43;;;3.10;99.90;;;;;;4963705;28;20077;-84
2021/12/09 09:22:13;;;;;;;4.80;1.77;;;3.10;99.90;;;;;;4962109;28;20108;-84
2021/12/09 09:24:40;;;;;;;5.67;1.33;;;3.10;99.90;;;;;;4946853;28;20042;-85
2021/12/09 09:27:06;;;;;;;4.47;1.40;;;3.20;99.90;;;;;;4965928;28;20029;-84
2021/12/09 09:29:34;;;;;;;3.83;1.50;;;3.20;99.90;;;;;;4950169;28;20082;-84
2021/12/09 09:32:00;;;;;;;3.17;1.60;;;3.20;99.90;;;;;;4970729;28;20450;-84
2021/12/09 09:34:26;;;;;;;5.43;1.70;;;3.20;99.90;;;;;;4965691;28;20037;-84
2021/12/09 09:36:52;;;;;;;3.87;1.50;;;3.20;99.90;;;;;;4958078;28;20107;-84
2021/12/09 09:39:18;;;;;;;2.97;1.30;;;3.30;99.90;;;;;;4955201;28;20042;-84
2021/12/09 09:41:56;;;;;;;5.27;1.50;;;3.20;99.90;;;;;;4947935;28;20023;-84
2021/12/09 09:44:28;;;;;;;7.53;1.90;;;3.20;99.90;;;;;;4953271;28;20070;-84
2021/12/09 09:46:58;;;;;;;6.47;1.88;;;3.30;99.90;;;;;;4963017;28;20046;-84
2021/12/09 09:49:23;;;;;;;5.60;1.93;;;3.30;99.90;;;;;;4970937;28;20038;-84
2021/12/09 09:51:50;;;;;;;3.73;1.47;;;3.30;99.90;;;;;;4964894;28;20125;-84
2021/12/09 09:54:15;;;;;;;6.90;1.30;;;3.30;99.90;;;;;;4968394;28;20044;-84
2021/12/09 09:56:42;;;;;;;3.57;1.60;;;3.40;99.90;;;;;;4968035;28;20018;-84
2021/12/09 09:59:12;;;;;;;6.03;2.00;;;3.40;99.90;;;;;;4968721;28;20019;-84
2021/12/09 10:31:08;;;;;;;;;;;;;;;;;;;;;
2021/12/09 10:37:57;;;;;;;8.67;2.10;;;3.70;99.90;;;;;;4936015;29;20040;-90
2021/12/09 10:44:53;;;;;;;;;;;;;;;;;;;;;
2021/12/09 12:18:58;;;;;;;4.07;0.90;;;4.80;99.90;;;;;;3761008;23;20116;-90
2021/12/09 12:25:42;;;;;;;5.50;1.03;;;4.80;99.90;;;;;;4952926;28;20063;-90
2021/12/09 12:43:40;;;;;;;3.97;0.80;;;5.00;99.90;;;;;;5046262;23;20117;-90
2021/12/09 12:50:36;;;;;;;3.33;0.83;;;4.70;99.90;;;;;;4987007;28;20050;-90
2021/12/09 13:06:29;;;;;;;;;;;;;;;;;;;;;
2021/12/09 13:23:43;;;;;;;2.27;0.60;;;5.30;99.90;;;;;;4973683;28;20051;-89
2021/12/09 13:54:41;;;;;;;;;;;;;;;;;;;;;
2021/12/09 13:57:11;;;;;;;2.93;0.50;;;4.50;99.90;;;;;;4936301;29;20396;-87
2021/12/09 14:03:17;;;;;;;1.03;0.30;;;4.50;99.90;;;;;;4941811;29;20050;-88
2021/12/09 14:06:07;;;;;;;4.20;0.40;;;4.50;99.90;;;;;;4920029;29;20165;-88
2021/12/09 14:08:55;;;;;;;2.67;0.57;;;4.40;99.90;;;;;;4934934;29;20147;-89
2021/12/09 14:11:34;;;;;;;5.73;0.90;;;4.40;99.90;;;;;;4905084;29;20058;-87
2021/12/09 14:14:10;;;;;;;2.37;0.40;;;4.30;99.90;;;;;;4921043;29;20137;-88
2021/12/09 14:16:48;;;;;;;4.50;0.70;;;4.40;99.90;;;;;;4929165;29;20496;-89
2021/12/09 14:37:35;;;;;;;1.87;0.43;;;4.20;99.90;;;;;;3307225;23;20056;-88
2021/12/09 14:40:14;;;;;;;3.27;0.80;;;4.20;99.90;;;;;;4977960;28;20566;-86
2021/12/09 14:42:50;;;;;;;2.13;0.33;;;4.10;99.90;;;;;;4988443;28;20026;-86
2021/12/09 14:45:16;;;;;;;4.77;0.30;;;4.10;99.90;;;;;;4965518;28;20022;-86
2021/12/09 14:47:54;;;;;;;5.50;1.17;;;4.20;99.90;;;;;;4977079;28;20023;-86
2021/12/09 14:50:19;;;;;;;3.90;0.53;;;4.20;99.90;;;;;;4958950;28;20085;-87
2021/12/09 14:52:45;;;;;;;4.37;0.83;;;4.30;99.90;;;;;;4973992;28;20400;-87
2021/12/09 14:55:16;;;;;;;3.90;0.53;;;4.40;99.90;;;;;;4975715;28;20550;-86
2021/12/09 14:58:14;;;;;;;2.50;0.50;;;4.40;99.90;;;;;;4972728;28;20398;-87
2021/12/09 15:00:45;;;;;;;4.27;0.87;;;4.50;99.90;;;;;;4968618;28;20061;-85
2021/12/09 15:03:14;;;;;;;5.60;0.53;;;4.40;99.90;;;;;;4990903;28;20026;-86
2021/12/09 15:06:07;;;;;;;5.27;0.50;;;4.40;99.90;;;;;;4991619;28;20055;-85
2021/12/09 15:08:48;;;;;;;3.37;0.77;;;4.40;99.90;;;;;;4964024;28;20046;-87
2021/12/09 15:11:13;;;;;;;3.07;0.60;;;4.40;99.90;;;;;;4990451;28;20031;-86
2021/12/09 15:13:48;;;;;;;5.17;0.60;;;4.40;99.90;;;;;;4988378;28;20034;-87
2021/12/09 15:16:19;;;;;;;5.90;0.57;;;4.30;99.90;;;;;;4974900;28;20668;-86
2021/12/09 15:18:45;;;;;;;2.23;0.50;;;4.20;99.90;;;;;;4976235;28;20023;-87
2021/12/09 15:21:17;;;;;;;3.20;0.67;;;4.30;99.90;;;;;;4993198;28;20033;-87
2021/12/09 15:23:45;;;;;;;;;;;4.10;99.90;;;;;;4992740;28;20037;-86
2021/12/09 15:26:35;;;;;;;2.37;0.50;;;4.00;99.90;;;;;;4973163;28;19909;-87
2021/12/09 15:29:18;;;;;;;3.20;0.50;;;3.90;99.90;;;;;;4992578;28;20037;-87
2021/12/09 15:32:06;;;;;;;1.60;0.50;;;3.90;99.90;;;;;;4973959;28;20105;-87
2021/12/09 15:34:40;;;;;;;5.30;0.70;;;3.80;99.90;;;;;;4974421;28;20026;-88
2021/12/09 15:37:12;;;;;;;1.30;0.60;;;3.80;99.90;;;;;;4974731;28;20475;-88
2021/12/09 15:39:43;;;;;;;2.45;0.80;;;3.80;99.90;;;;;;4961866;28;20126;-87
2021/12/09 15:42:15;;;;;;;2.45;0.60;;;3.70;99.90;;;;;;4972645;28;20380;-87
2021/12/09 15:44:48;;;;;;;7.25;0.55;;;3.70;99.90;;;;;;4964203;28;20026;-87
2021/12/09 15:47:37;;;;;;;4.07;0.47;;;3.70;99.90;;;;;;4971756;28;20046;-88
2021/12/09 15:50:09;;;;;;;5.10;0.80;;;3.70;99.90;;;;;;4974746;28;20391;-87
2021/12/09 15:52:43;;;;;;;2.85;0.60;;;3.70;99.90;;;;;;4986382;28;20030;-87
2021/12/09 15:55:14;;;;;;;2.53;0.60;;;3.70;99.90;;;;;;4968511;28;20030;-88
2021/12/09 15:57:43;;;;;;;3.90;0.80;;;3.70;99.90;;;;;;4975151;28;20044;-87
2021/12/09 16:00:13;;;;;;;3.63;0.53;;;3.70;99.90;;;;;;4985581;28;20035;-87
2021/12/09 16:02:39;;;;;;;5.77;0.77;;;3.70;99.90;;;;;;5015681;23;20046;-85
2021/12/09 16:05:07;;;;;;;2.40;0.70;;;3.70;99.90;;;;;;5020846;28;20028;-85
2021/12/09 16:07:33;;;;;;;4.40;0.90;;;3.70;99.90;;;;;;5006953;28;21731;-84
2021/12/09 16:09:59;;;;;;;2.60;0.70;;;3.70;99.90;;;;;;5019413;28;20036;-84
2021/12/09 16:12:28;;;;;;;2.70;0.77;;;3.70;99.90;;;;;;4997724;28;20025;-85
2021/12/09 16:14:58;;;;;;;2.43;0.73;;;3.70;99.90;;;;;;5002346;28;20221;-85
2021/12/09 16:17:29;;;;;;;2.67;0.60;;;3.60;99.90;;;;;;5004626;28;20405;-86
2021/12/09 16:19:58;;;;;;;3.53;0.73;;;3.50;99.90;;;;;;4998321;28;20707;-85
2021/12/09 16:25:00;;;;;;;3.53;0.70;;;3.40;99.90;;;;;;5011521;28;20022;-86
2021/12/09 16:27:27;;;;;;;8.07;0.90;;;3.40;99.90;;;;;;5003058;28;20021;-85
2021/12/09 16:29:54;;;;;;;5.07;0.57;;;3.40;99.90;;;;;;5008609;28;20010;-84
2021/12/09 16:32:20;;;;;;;2.53;0.47;;;3.50;99.90;;;;;;5025418;28;20025;-85
2021/12/09 16:34:49;;;;;;;1.27;0.40;;;3.50;99.90;;;;;;5011946;28;20022;-85
2021/12/09 16:37:15;;;;;;;5.27;0.60;;;3.50;99.90;;;;;;5010318;28;20037;-85
2021/12/09 16:39:42;;;;;;;4.13;0.93;;;3.50;99.90;;;;;;5016448;28;20041;-85
2021/12/09 16:42:08;;;;;;;2.60;0.77;;;3.50;99.90;;;;;;5010076;28;20024;-85
2021/12/09 16:44:35;;;;;;;3.87;1.00;;;3.50;99.90;;;;;;5008129;28;20101;-85
2021/12/09 16:47:01;;;;;;;4.20;0.80;;;3.60;99.90;;;;;;5003593;28;20486;-85
2021/12/09 16:49:27;;;;;;;8.97;0.80;;;3.60;99.90;;;;;;5009681;28;20048;-85
2021/12/09 16:51:54;;;;;;;3.43;0.90;;;3.70;99.90;;;;;;5026177;28;20121;-85
2021/12/09 16:54:33;;;;;;;8.50;0.80;;;3.50;99.90;;;;;;5014632;28;20548;-85
2021/12/09 16:57:13;;;;;;;4.30;1.10;;;3.50;99.90;;;;;;5016034;28;20136;-85
2021/12/09 16:59:39;;;;;;;1.97;0.53;;;3.60;99.90;;;;;;4995285;28;20216;-84
2021/12/09 17:02:10;;;;;;;4.07;1.03;;;3.60;99.90;;;;;;5001468;28;20049;-85
2021/12/09 17:04:39;;;;;;;3.00;0.77;;;3.60;99.90;;;;;;5008004;28;20288;-85